createdAt,value
2019-03-05T00:05:29.254Z,90.60
2019-03-05T00:15:33.448Z,90.70
2019-03-05T00:25:37.335Z,90.80
2019-03-05T00:36:10.620Z,90.80
2019-03-05T00:46:37.966Z,90.80
2019-03-05T00:57:06.955Z,90.80
2019-03-05T01:07:10.807Z,90.80
2019-03-05T01:17:14.669Z,90.80
2019-03-05T01:27:19.098Z,90.80
2019-03-05T01:37:23.291Z,90.60
2019-03-05T01:47:27.658Z,90.70
2019-03-05T01:57:31.712Z,90.60
2019-03-05T02:07:35.775Z,90.60
2019-03-05T02:17:39.546Z,91.80
2019-03-05T02:27:55.060Z,92.50
2019-03-05T02:38:33.411Z,93.00
2019-03-05T02:49:02.505Z,93.30
2019-03-05T02:59:05.588Z,93.30
2019-03-05T03:10:09.537Z,93.20
2019-03-05T03:20:15.185Z,93.10
2019-03-05T03:30:24.231Z,93.20
2019-03-05T03:40:28.291Z,93.10
2019-03-05T03:50:32.096Z,93.10
2019-03-05T04:00:35.879Z,93.10
2019-03-05T04:10:39.675Z,93.40
2019-03-05T04:20:47.880Z,93.50
2019-03-05T04:30:52.184Z,93.40
2019-03-05T04:40:56.496Z,93.10
2019-03-05T04:51:12.700Z,92.90
2019-03-05T05:01:17.279Z,92.80
2019-03-05T05:11:21.567Z,92.90
2019-03-05T05:21:25.747Z,92.90
2019-03-05T05:31:30.050Z,92.80
2019-03-05T05:41:34.118Z,92.80
2019-03-05T05:51:38.158Z,93.00
2019-03-05T06:01:42.491Z,93.10
2019-03-05T06:11:46.268Z,93.10
2019-03-05T06:21:50.055Z,92.80
2019-03-05T06:31:53.843Z,91.10
2019-03-05T06:41:58.136Z,92.20
2019-03-05T06:52:01.990Z,92.20
2019-03-05T07:02:06.183Z,92.40
2019-03-05T07:12:56.929Z,92.20
2019-03-05T07:23:16.723Z,92.00
2019-03-05T07:33:20.778Z,90.90
2019-03-05T07:43:35.984Z,91.30
2019-03-05T07:53:30.326Z,91.40
2019-03-05T08:03:34.119Z,91.40
2019-03-05T08:14:05.356Z,90.80
2019-03-05T08:24:09.143Z,91.10
2019-03-05T08:34:12.951Z,90.70
2019-03-05T08:44:17.280Z,88.30
2019-03-05T08:54:40.035Z,86.00
2019-03-05T09:04:44.300Z,85.80
2019-03-05T09:14:48.348Z,85.30
2019-03-05T09:24:52.900Z,86.40
2019-03-05T09:34:57.463Z,85.40
2019-03-05T09:45:01.505Z,85.20
2019-03-05T09:55:06.404Z,86.70
2019-03-05T10:05:11.177Z,88.70
2019-03-05T10:15:17.842Z,90.20
2019-03-05T10:25:23.425Z,90.70
2019-03-05T10:35:27.483Z,91.00
2019-03-05T10:45:32.040Z,91.10
2019-03-05T10:55:36.154Z,91.20
2019-03-05T11:05:42.547Z,91.80
2019-03-05T11:15:49.248Z,91.60
2019-03-05T11:25:53.359Z,91.50
2019-03-05T11:35:57.467Z,92.00
2019-03-05T11:46:01.578Z,91.70
2019-03-05T11:56:05.780Z,91.80
2019-03-05T12:06:09.830Z,91.70
2019-03-05T12:16:15.390Z,91.80
2019-03-05T12:26:19.427Z,91.70
2019-03-05T12:36:23.623Z,91.10
2019-03-05T12:46:27.982Z,91.30
2019-03-05T12:56:32.291Z,91.40
2019-03-05T13:06:36.655Z,90.90
2019-03-05T13:16:40.762Z,90.80
2019-03-05T13:26:46.358Z,90.70
2019-03-05T13:36:51.614Z,90.70
2019-03-05T13:47:08.839Z,90.40
2019-03-05T13:57:56.070Z,90.30
2019-03-05T14:08:34.116Z,90.00
2019-03-05T14:18:37.989Z,90.10
2019-03-05T14:28:42.424Z,90.40
2019-03-05T14:38:46.375Z,90.30
2019-03-05T14:48:50.415Z,90.00
2019-03-05T14:58:54.693Z,89.00
2019-03-05T15:08:59.251Z,89.20
2019-03-05T15:19:03.169Z,88.30
2019-03-05T15:29:07.576Z,86.80
2019-03-05T15:39:11.996Z,86.00
2019-03-05T15:49:16.100Z,87.60
2019-03-05T15:59:20.188Z,88.50
2019-03-05T16:09:24.296Z,88.50
2019-03-05T16:19:28.627Z,89.20
2019-03-05T16:29:32.680Z,89.40
2019-03-05T16:39:46.417Z,88.30
2019-03-05T16:50:08.343Z,87.80
2019-03-05T17:00:35.182Z,88.30
2019-03-05T17:11:04.849Z,88.40
2019-03-05T17:21:09.018Z,88.90
2019-03-05T17:31:13.171Z,89.10
2019-03-05T17:41:17.322Z,89.40
2019-03-05T17:51:26.255Z,90.10
2019-03-05T18:01:30.215Z,90.20
2019-03-05T18:11:34.713Z,90.20
2019-03-05T18:21:58.256Z,90.40
2019-03-05T18:32:02.032Z,90.60
2019-03-05T18:42:06.191Z,90.60
2019-03-05T18:52:10.247Z,90.70
2019-03-05T19:02:14.552Z,90.70
2019-03-05T19:12:18.619Z,91.10
2019-03-05T19:22:22.944Z,91.20
2019-03-05T19:32:27.167Z,91.10
2019-03-05T19:42:31.762Z,91.20
2019-03-05T19:52:36.139Z,91.30
2019-03-05T20:02:40.611Z,91.30
2019-03-05T20:12:44.656Z,91.20
2019-03-05T20:22:48.923Z,91.20
2019-03-05T20:32:53.460Z,91.10
2019-03-05T20:42:57.543Z,91.20
2019-03-05T20:53:02.146Z,91.20
2019-03-05T21:03:06.766Z,91.10
2019-03-05T21:13:11.149Z,89.70
2019-03-05T21:23:15.494Z,90.70
2019-03-05T21:33:19.894Z,91.00
2019-03-05T21:43:23.859Z,91.10
2019-03-05T21:53:27.903Z,91.10
2019-03-05T22:03:33.535Z,91.10
2019-03-05T22:13:45.386Z,91.20
2019-03-05T22:23:49.822Z,91.20
2019-03-05T22:33:54.247Z,91.20
2019-03-05T22:43:58.595Z,91.20
2019-03-05T22:54:02.648Z,91.90
2019-03-05T23:04:07.186Z,91.40
2019-03-05T23:14:11.584Z,91.40
2019-03-05T23:24:15.576Z,91.40
2019-03-05T23:34:19.435Z,91.40
2019-03-05T23:44:23.818Z,91.50
2019-03-05T23:54:28.023Z,91.50
